NAY143A GCXO-GCLP
Flight info
| Callsign | NAY143A |
|---|---|
| Flight time | 0h 24m |
| Altitude | 12000 |
| Route | LALTO |
| Aircraft | AT76/M-SDFGIRY/S |
Departure
| Time | 2026-04-30 19:31 |
|---|---|
| Airport | Tenerife Norte-Ciudad de La Laguna Airport (GCXO) |
Arrival
| Time | 2026-04-30 19:55 |
|---|---|
| Airport | Gran Canaria Airport (GCLP) |
| Time | Latitude | Longitude | Altitude | Speed | Heading |
|---|---|---|---|---|---|
| 2026-04-30 18:52 | 28.48658 | -16.34595 | 2065 ft | 0 kts | 21° |
| 2026-04-30 19:24 | 28.48657 | -16.34595 | 2065 ft | 1 kts | 21° |
| 2026-04-30 19:24 | 28.48590 | -16.34625 | 2066 ft | 8 kts | 21° |
| 2026-04-30 19:25 | 28.48541 | -16.34607 | 2065 ft | 10 kts | 115° |
| 2026-04-30 19:26 | 28.48461 | -16.34390 | 2055 ft | 18 kts | 111° |
| 2026-04-30 19:26 | 28.48378 | -16.34142 | 2045 ft | 17 kts | 109° |
| 2026-04-30 19:26 | 28.48337 | -16.34018 | 2041 ft | 18 kts | 111° |
| 2026-04-30 19:27 | 28.48248 | -16.33749 | 2034 ft | 18 kts | 111° |
| 2026-04-30 19:27 | 28.48158 | -16.33479 | 2033 ft | 18 kts | 110° |
| 2026-04-30 19:28 | 28.48112 | -16.33342 | 2030 ft | 19 kts | 110° |
| 2026-04-30 19:28 | 28.48017 | -16.33052 | 2018 ft | 20 kts | 112° |
| 2026-04-30 19:29 | 28.47918 | -16.32758 | 2010 ft | 20 kts | 111° |
| 2026-04-30 19:29 | 28.47871 | -16.32617 | 2008 ft | 19 kts | 118° |
| 2026-04-30 19:30 | 28.47794 | -16.32732 | 2015 ft | 46 kts | 290° |
| 2026-04-30 19:30 | 28.48249 | -16.34073 | 2187 ft | 121 kts | 291° |
| 2026-04-30 19:31 | 28.48891 | -16.36067 | 3078 ft | 139 kts | 289° |
| 2026-04-30 19:31 | 28.49198 | -16.37105 | 3559 ft | 143 kts | 286° |
| 2026-04-30 19:31 | 28.49902 | -16.39662 | 3557 ft | 192 kts | 291° |
| 2026-04-30 19:32 | 28.50408 | -16.41081 | 3864 ft | 195 kts | 293° |
| 2026-04-30 19:32 | 28.50940 | -16.42501 | 4228 ft | 196 kts | 293° |
| 2026-04-30 19:32 | 28.51524 | -16.43889 | 4570 ft | 193 kts | 306° |
| 2026-04-30 19:32 | 28.52650 | -16.44679 | 4909 ft | 196 kts | 351° |
| 2026-04-30 19:33 | 28.53950 | -16.44337 | 5314 ft | 197 kts | 34° |
| 2026-04-30 19:33 | 28.54712 | -16.43079 | 5691 ft | 197 kts | 77° |
| 2026-04-30 19:33 | 28.54576 | -16.41562 | 6069 ft | 195 kts | 111° |
| 2026-04-30 19:33 | 28.54105 | -16.40100 | 6416 ft | 197 kts | 110° |
| 2026-04-30 19:34 | 28.53672 | -16.38616 | 6745 ft | 199 kts | 110° |
| 2026-04-30 19:34 | 28.53281 | -16.37104 | 7090 ft | 200 kts | 105° |
| 2026-04-30 19:34 | 28.52898 | -16.33968 | 7758 ft | 199 kts | 99° |
| 2026-04-30 19:35 | 28.52337 | -16.32566 | 8056 ft | 197 kts | 129° |
| 2026-04-30 19:35 | 28.51515 | -16.31309 | 8394 ft | 199 kts | 129° |
| 2026-04-30 19:35 | 28.50712 | -16.30023 | 8719 ft | 200 kts | 127° |
| 2026-04-30 19:35 | 28.49953 | -16.28690 | 9052 ft | 202 kts | 124° |
| 2026-04-30 19:36 | 28.49242 | -16.27305 | 9374 ft | 204 kts | 122° |
| 2026-04-30 19:36 | 28.48561 | -16.25891 | 9696 ft | 205 kts | 122° |
| 2026-04-30 19:36 | 28.47406 | -16.23496 | 10067 ft | 213 kts | 122° |
| 2026-04-30 19:37 | 28.46678 | -16.21990 | 10109 ft | 222 kts | 122° |
| 2026-04-30 19:37 | 28.45917 | -16.20419 | 10131 ft | 231 kts | 122° |
| 2026-04-30 19:37 | 28.45127 | -16.18793 | 10140 ft | 239 kts | 122° |
| 2026-04-30 19:37 | 28.44314 | -16.17123 | 10144 ft | 245 kts | 122° |
| 2026-04-30 19:38 | 28.43480 | -16.15412 | 10145 ft | 250 kts | 122° |
| 2026-04-30 19:38 | 28.42630 | -16.13673 | 10146 ft | 254 kts | 122° |
| 2026-04-30 19:38 | 28.41769 | -16.11911 | 10145 ft | 256 kts | 122° |
| 2026-04-30 19:38 | 28.40899 | -16.10132 | 10143 ft | 259 kts | 122° |
| 2026-04-30 19:39 | 28.40022 | -16.08342 | 10139 ft | 260 kts | 122° |
| 2026-04-30 19:39 | 28.39140 | -16.06542 | 10136 ft | 262 kts | 122° |
| 2026-04-30 19:39 | 28.38252 | -16.04731 | 10136 ft | 263 kts | 122° |
| 2026-04-30 19:39 | 28.37362 | -16.02913 | 10131 ft | 264 kts | 122° |
| 2026-04-30 19:40 | 28.36468 | -16.01094 | 10134 ft | 264 kts | 122° |
| 2026-04-30 19:40 | 28.35573 | -15.99270 | 10133 ft | 264 kts | 122° |
| 2026-04-30 19:40 | 28.34677 | -15.97444 | 10129 ft | 265 kts | 122° |
| 2026-04-30 19:40 | 28.33777 | -15.95616 | 10129 ft | 265 kts | 122° |
| 2026-04-30 19:41 | 28.32878 | -15.93785 | 10125 ft | 266 kts | 122° |
| 2026-04-30 19:41 | 28.31974 | -15.91950 | 10127 ft | 266 kts | 122° |
| 2026-04-30 19:41 | 28.31071 | -15.90115 | 10126 ft | 266 kts | 122° |
| 2026-04-30 19:41 | 28.30168 | -15.88284 | 10119 ft | 266 kts | 122° |
| 2026-04-30 19:42 | 28.29267 | -15.86454 | 10121 ft | 266 kts | 122° |
| 2026-04-30 19:42 | 28.28367 | -15.84624 | 10124 ft | 265 kts | 122° |
| 2026-04-30 19:42 | 28.27468 | -15.82796 | 10125 ft | 265 kts | 122° |
| 2026-04-30 19:42 | 28.26567 | -15.80969 | 10125 ft | 265 kts | 122° |
| 2026-04-30 19:43 | 28.25667 | -15.79145 | 10126 ft | 265 kts | 122° |
| 2026-04-30 19:43 | 28.24765 | -15.77322 | 10123 ft | 265 kts | 122° |
| 2026-04-30 19:43 | 28.23865 | -15.75497 | 10124 ft | 265 kts | 122° |
| 2026-04-30 19:44 | 28.22063 | -15.71850 | 10127 ft | 265 kts | 122° |
| 2026-04-30 19:44 | 28.21173 | -15.70049 | 10125 ft | 265 kts | 122° |
| 2026-04-30 19:44 | 28.20271 | -15.68225 | 10124 ft | 265 kts | 122° |
| 2026-04-30 19:44 | 28.19368 | -15.66401 | 10124 ft | 265 kts | 122° |
| 2026-04-30 19:45 | 28.18466 | -15.64579 | 10124 ft | 265 kts | 122° |
| 2026-04-30 19:45 | 28.17508 | -15.62810 | 10119 ft | 261 kts | 132° |
| 2026-04-30 19:45 | 28.16105 | -15.61602 | 10123 ft | 253 kts | 163° |
| 2026-04-30 19:45 | 28.14406 | -15.61166 | 10122 ft | 251 kts | 172° |
| 2026-04-30 19:46 | 28.12692 | -15.60759 | 10125 ft | 253 kts | 169° |
| 2026-04-30 19:46 | 28.10992 | -15.60212 | 10113 ft | 256 kts | 164° |
| 2026-04-30 19:46 | 28.09322 | -15.59500 | 10110 ft | 257 kts | 161° |
| 2026-04-30 19:46 | 28.07666 | -15.58724 | 10114 ft | 258 kts | 160° |
| 2026-04-30 19:47 | 28.06009 | -15.57940 | 10112 ft | 258 kts | 160° |
| 2026-04-30 19:47 | 28.04902 | -15.57424 | 9868 ft | 261 kts | 161° |
| 2026-04-30 19:47 | 28.02643 | -15.56400 | 9267 ft | 261 kts | 161° |
| 2026-04-30 19:47 | 28.00955 | -15.55644 | 8812 ft | 261 kts | 161° |
| 2026-04-30 19:48 | 27.99273 | -15.54892 | 8405 ft | 259 kts | 161° |
| 2026-04-30 19:48 | 27.97597 | -15.54152 | 7959 ft | 258 kts | 161° |
| 2026-04-30 19:48 | 27.95927 | -15.53423 | 7503 ft | 256 kts | 161° |
| 2026-04-30 19:48 | 27.94269 | -15.52710 | 7026 ft | 254 kts | 161° |
| 2026-04-30 19:49 | 27.92638 | -15.52001 | 6199 ft | 249 kts | 160° |
| 2026-04-30 19:49 | 27.89408 | -15.50571 | 4285 ft | 249 kts | 159° |
| 2026-04-30 19:49 | 27.87868 | -15.49898 | 3969 ft | 217 kts | 159° |
| 2026-04-30 19:50 | 27.86586 | -15.49312 | 4013 ft | 183 kts | 158° |
| 2026-04-30 19:50 | 27.85491 | -15.48804 | 4036 ft | 161 kts | 158° |
| 2026-04-30 19:50 | 27.84427 | -15.48308 | 3556 ft | 173 kts | 158° |
| 2026-04-30 19:50 | 27.83312 | -15.47801 | 3273 ft | 168 kts | 159° |
| 2026-04-30 19:51 | 27.82288 | -15.47324 | 3229 ft | 151 kts | 151° |
| 2026-04-30 19:51 | 27.81682 | -15.46476 | 3216 ft | 133 kts | 102° |
| 2026-04-30 19:51 | 27.81808 | -15.45462 | 3082 ft | 138 kts | 63° |
| 2026-04-30 19:51 | 27.82318 | -15.44539 | 3020 ft | 134 kts | 46° |
| 2026-04-30 19:52 | 27.83023 | -15.43865 | 2898 ft | 141 kts | 37° |
| 2026-04-30 19:52 | 27.83805 | -15.43195 | 2654 ft | 144 kts | 34° |
| 2026-04-30 19:52 | 27.84632 | -15.42537 | 2330 ft | 145 kts | 33° |
| 2026-04-30 19:52 | 27.85502 | -15.42024 | 1990 ft | 142 kts | 22° |
| 2026-04-30 19:53 | 27.86438 | -15.41614 | 1711 ft | 142 kts | 20° |
| 2026-04-30 19:53 | 27.87321 | -15.41234 | 1388 ft | 132 kts | 21° |
| 2026-04-30 19:53 | 27.88181 | -15.40869 | 1137 ft | 133 kts | 21° |
| 2026-04-30 19:53 | 27.89051 | -15.40486 | 930 ft | 135 kts | 22° |
| 2026-04-30 19:54 | 27.89969 | -15.40096 | 672 ft | 146 kts | 24° |
| 2026-04-30 19:54 | 27.90911 | -15.39676 | 400 ft | 145 kts | 23° |
| 2026-04-30 19:54 | 27.91850 | -15.39256 | 154 ft | 146 kts | 24° |
| 2026-04-30 19:54 | 27.92692 | -15.38871 | 61 ft | 98 kts | 16° |
| 2026-04-30 19:55 | 27.93089 | -15.38721 | 54 ft | 50 kts | 7° |
| 2026-04-30 19:55 | 27.93331 | -15.38747 | 69 ft | 25 kts | 352° |
| 2026-04-30 19:55 | 27.93377 | -15.38754 | 72 ft | 3 kts | 352° |
| 2026-04-30 19:55 | 27.93410 | -15.38754 | 72 ft | 4 kts | 19° |
| 2026-04-30 19:56 | 27.93447 | -15.38738 | 68 ft | 7 kts | 21° |
| 2026-04-30 19:56 | 27.93498 | -15.38716 | 73 ft | 9 kts | 21° |
| 2026-04-30 19:56 | 27.93555 | -15.38688 | 71 ft | 10 kts | 21° |
| 2026-04-30 19:56 | 27.93624 | -15.38657 | 74 ft | 11 kts | 21° |
| 2026-04-30 19:57 | 27.93698 | -15.38624 | 68 ft | 12 kts | 21° |
| 2026-04-30 19:57 | 27.93776 | -15.38588 | 75 ft | 12 kts | 22° |
| 2026-04-30 19:57 | 27.93858 | -15.38553 | 69 ft | 14 kts | 20° |
| 2026-04-30 19:57 | 27.93959 | -15.38509 | 70 ft | 21 kts | 22° |
| 2026-04-30 19:58 | 27.94049 | -15.38498 | 69 ft | 7 kts | 296° |
| 2026-04-30 19:58 | 27.94071 | -15.38614 | 73 ft | 16 kts | 254° |
| 2026-04-30 19:58 | 27.94067 | -15.38640 | 73 ft | 4 kts | 278° |
| 2026-04-30 19:58 | 27.94084 | -15.38697 | 85 ft | 0 kts | 287° |
| 2026-04-30 19:59 | 27.94085 | -15.38699 | 84 ft | 0 kts | 290° |